Time;durP1;ratioP1;P1;durP2;ratioP2;P2;SDS_P1;SDS_P2;PMS_P1;PMS_P2;Temp;Humidity;BMP_temperature;BMP_pressure;BME280_temperature;BME280_humidity;BME280_pressure;Samples;Min_cycle;Max_cycle;Signal;HPM_P1;HPM_P2
2021/07/17 00:01:37;;;;;;;24.25;11.25;;;18.50;90.50;;;;;;5073375;28;20516;-79
2021/07/17 00:04:04;;;;;;;24.52;11.25;;;18.50;90.60;;;;;;5074044;28;20032;-79
2021/07/17 00:06:31;;;;;;;26.77;10.88;;;18.40;90.60;;;;;;5091795;28;20024;-79
2021/07/17 00:08:56;;;;;;;28.80;10.60;;;18.40;90.60;;;;;;5076505;28;20496;-79
2021/07/17 00:11:22;;;;;;;25.45;10.80;;;18.40;90.60;;;;;;5074020;28;20024;-79
2021/07/17 00:13:48;;;;;;;30.13;10.10;;;18.50;90.70;;;;;;5090318;28;20047;-79
2021/07/17 00:16:15;;;;;;;32.38;11.23;;;18.40;90.70;;;;;;5094449;28;20031;-79
2021/07/17 00:18:41;;;;;;;25.20;9.50;;;18.40;90.60;;;;;;5086437;28;20071;-79
2021/07/17 00:21:07;;;;;;;31.42;10.85;;;18.40;90.60;;;;;;5073874;28;20068;-79
2021/07/17 00:23:32;;;;;;;27.35;9.68;;;18.40;90.60;;;;;;5073757;28;20025;-79
2021/07/17 00:25:59;;;;;;;28.75;10.68;;;18.40;90.60;;;;;;5072729;28;20025;-79
2021/07/17 00:28:25;;;;;;;27.08;10.20;;;18.30;90.60;;;;;;5074904;28;20040;-79
2021/07/17 00:30:50;;;;;;;27.15;9.73;;;18.30;90.60;;;;;;5080720;28;20127;-79
2021/07/17 00:33:16;;;;;;;26.60;10.60;;;18.30;90.70;;;;;;5073598;28;20494;-79
2021/07/17 00:35:41;;;;;;;31.33;10.25;;;18.30;90.80;;;;;;5082122;28;20024;-79
2021/07/17 00:38:07;;;;;;;31.52;10.80;;;18.30;90.80;;;;;;5073196;28;20051;-79
2021/07/17 00:40:33;;;;;;;23.65;10.32;;;18.30;90.80;;;;;;5071920;28;20039;-79
2021/07/17 00:42:59;;;;;;;22.45;9.50;;;18.30;90.90;;;;;;5079744;28;20429;-79
2021/07/17 00:45:24;;;;;;;34.80;11.63;;;18.30;90.90;;;;;;5091988;28;20032;-79
2021/07/17 00:47:50;;;;;;;27.05;10.07;;;18.30;90.90;;;;;;5080109;28;20477;-79
2021/07/17 00:50:19;;;;;;;30.52;11.00;;;18.20;90.90;;;;;;5073432;28;20385;-79
2021/07/17 00:52:45;;;;;;;26.27;9.32;;;18.20;91.00;;;;;;5053474;28;20385;-79
2021/07/17 00:55:12;;;;;;;33.58;11.43;;;18.20;90.90;;;;;;5053394;28;20037;-79
2021/07/17 00:57:40;;;;;;;31.95;10.25;;;18.20;90.90;;;;;;5053423;28;20059;-79
2021/07/17 01:00:11;;;;;;;32.42;10.60;;;18.20;90.90;;;;;;5069710;28;20029;-79
2021/07/17 01:02:45;;;;;;;39.38;10.35;;;18.10;90.90;;;;;;5078245;28;20024;-79
2021/07/17 01:05:11;;;;;;;30.35;10.65;;;18.10;90.80;;;;;;5089063;28;20110;-79
2021/07/17 01:07:38;;;;;;;27.23;10.15;;;18.00;90.80;;;;;;5073426;28;20028;-79
2021/07/17 01:10:07;;;;;;;33.53;10.23;;;18.00;90.90;;;;;;5073254;28;20077;-79
2021/07/17 01:12:33;;;;;;;29.13;10.50;;;18.00;91.00;;;;;;5074163;28;20024;-78
2021/07/17 01:14:59;;;;;;;32.45;9.60;;;17.90;91.00;;;;;;5077634;28;20031;-79
2021/07/17 01:17:25;;;;;;;33.13;10.18;;;17.90;91.00;;;;;;5078862;28;20031;-79
2021/07/17 01:19:51;;;;;;;25.00;9.68;;;17.80;91.10;;;;;;5097636;28;20032;-79
2021/07/17 01:22:18;;;;;;;23.73;9.95;;;17.80;91.10;;;;;;5094657;28;20028;-79
2021/07/17 01:24:43;;;;;;;29.98;9.52;;;17.80;91.20;;;;;;5077208;28;20056;-79
2021/07/17 01:27:12;;;;;;;32.17;10.48;;;17.80;91.30;;;;;;5076092;28;20102;-79
2021/07/17 01:29:39;;;;;;;31.60;11.13;;;17.70;91.30;;;;;;5075810;28;20081;-79
2021/07/17 01:32:05;;;;;;;29.35;11.10;;;17.70;91.30;;;;;;5077141;28;20027;-79
2021/07/17 01:34:30;;;;;;;35.17;11.60;;;17.70;91.40;;;;;;5077097;28;20032;-79
2021/07/17 01:36:56;;;;;;;36.38;11.18;;;17.70;91.40;;;;;;5077133;28;20029;-79
2021/07/17 01:39:23;;;;;;;30.63;10.73;;;17.70;91.50;;;;;;5075661;28;20033;-79
2021/07/17 01:41:49;;;;;;;35.38;12.00;;;17.70;91.50;;;;;;5075531;28;20048;-79
2021/07/17 01:44:14;;;;;;;34.72;10.85;;;17.60;91.40;;;;;;5090140;28;20067;-79
2021/07/17 01:46:42;;;;;;;32.30;10.95;;;17.60;91.40;;;;;;5097101;28;20021;-79
2021/07/17 01:49:07;;;;;;;41.22;11.25;;;17.60;91.40;;;;;;5095114;28;20012;-79
2021/07/17 01:51:33;;;;;;;31.00;10.82;;;17.60;91.50;;;;;;5097277;28;20418;-79
2021/07/17 01:54:00;;;;;;;31.77;11.18;;;17.50;91.50;;;;;;5087363;28;20036;-79
2021/07/17 01:56:27;;;;;;;26.83;10.70;;;17.50;91.50;;;;;;5075284;28;20024;-79
2021/07/17 01:58:55;;;;;;;34.45;11.70;;;17.50;91.50;;;;;;5072999;28;20035;-79
2021/07/17 02:01:23;;;;;;;31.92;11.48;;;17.50;91.60;;;;;;5096693;28;20040;-79
2021/07/17 02:03:50;;;;;;;28.52;10.95;;;17.50;91.60;;;;;;5081045;28;20029;-79
2021/07/17 02:06:26;;;;;;;24.83;9.80;;;17.40;91.60;;;;;;5076795;28;20032;-79
2021/07/17 02:08:52;;;;;;;31.15;11.00;;;17.40;91.60;;;;;;5076371;28;20377;-79
2021/07/17 02:11:19;;;;;;;28.25;10.77;;;17.40;91.60;;;;;;5076288;28;20033;-79
2021/07/17 02:13:50;;;;;;;33.88;11.60;;;17.40;91.60;;;;;;5075674;28;20021;-79
2021/07/17 02:16:16;;;;;;;26.77;10.55;;;17.40;91.60;;;;;;5086013;28;20017;-79
2021/07/17 02:18:43;;;;;;;29.67;11.90;;;17.30;91.70;;;;;;5081947;28;20053;-79
2021/07/17 02:21:09;;;;;;;33.35;10.73;;;17.30;91.70;;;;;;5088583;28;20036;-79
2021/07/17 02:23:36;;;;;;;22.95;10.30;;;17.30;91.70;;;;;;5077082;28;20016;-79
2021/07/17 02:26:04;;;;;;;33.00;12.63;;;17.30;91.70;;;;;;5085234;28;20065;-79
2021/07/17 02:28:29;;;;;;;30.75;11.32;;;17.20;91.70;;;;;;5079967;28;20074;-79
2021/07/17 02:30:55;;;;;;;27.75;11.02;;;17.20;91.70;;;;;;5080383;28;20048;-79
2021/07/17 02:33:21;;;;;;;31.75;11.45;;;17.20;91.70;;;;;;5083972;28;20024;-79
2021/07/17 02:35:46;;;;;;;35.58;12.00;;;17.20;91.70;;;;;;5092284;28;20036;-79
2021/07/17 02:38:13;;;;;;;30.20;11.43;;;17.20;91.70;;;;;;5092747;28;20393;-79
2021/07/17 02:40:39;;;;;;;28.83;11.13;;;17.20;91.60;;;;;;5075821;28;20112;-79
2021/07/17 02:43:05;;;;;;;31.92;11.73;;;17.10;91.60;;;;;;5087872;28;20023;-79
2021/07/17 02:45:31;;;;;;;34.25;11.90;;;17.10;91.70;;;;;;5086554;28;20481;-79
2021/07/17 02:47:57;;;;;;;33.45;11.15;;;17.10;91.70;;;;;;5083769;28;20028;-79
2021/07/17 02:50:22;;;;;;;30.02;10.82;;;17.00;91.70;;;;;;5082297;28;20508;-79
2021/07/17 02:52:48;;;;;;;25.52;11.00;;;17.00;91.80;;;;;;5079012;28;20025;-79
2021/07/17 02:55:14;;;;;;;26.30;11.50;;;17.00;91.80;;;;;;5078135;28;20436;-79
2021/07/17 02:57:40;;;;;;;28.25;11.55;;;17.00;91.80;;;;;;5087762;28;20050;-79
2021/07/17 03:00:09;;;;;;;25.45;10.82;;;17.00;91.80;;;;;;5079262;28;20059;-79
2021/07/17 03:02:34;;;;;;;25.45;10.45;;;17.00;91.80;;;;;;5094672;28;20028;-79
2021/07/17 03:05:00;;;;;;;27.75;10.80;;;16.90;91.80;;;;;;5085695;28;20036;-79
2021/07/17 03:07:25;;;;;;;33.80;11.75;;;16.90;91.80;;;;;;5080508;28;20063;-79
2021/07/17 03:09:51;;;;;;;29.23;11.52;;;16.90;91.80;;;;;;5078891;28;20028;-79
2021/07/17 03:12:17;;;;;;;30.65;11.27;;;16.90;91.80;;;;;;5084072;28;20024;-79
2021/07/17 03:14:42;;;;;;;28.25;11.68;;;16.90;91.80;;;;;;5090629;28;20028;-79
2021/07/17 03:17:09;;;;;;;26.25;11.18;;;16.90;91.80;;;;;;5076189;28;20036;-79
2021/07/17 03:19:34;;;;;;;28.08;11.73;;;16.90;91.80;;;;;;5083690;28;20074;-79
2021/07/17 03:22:00;;;;;;;27.10;10.60;;;16.80;91.80;;;;;;5082987;28;20106;-79
2021/07/17 03:24:26;;;;;;;30.73;11.52;;;16.80;91.80;;;;;;5086887;28;20025;-79
2021/07/17 03:26:51;;;;;;;33.85;12.82;;;16.80;91.90;;;;;;5074820;28;20056;-79
2021/07/17 03:29:17;;;;;;;25.40;10.73;;;16.80;91.90;;;;;;5086565;28;20082;-79
2021/07/17 03:31:43;;;;;;;32.17;11.13;;;16.80;91.90;;;;;;5082240;28;20034;-79
2021/07/17 03:34:09;;;;;;;25.60;10.65;;;16.70;91.90;;;;;;5083503;28;20025;-79
2021/07/17 03:36:35;;;;;;;26.02;10.85;;;16.70;91.90;;;;;;5078584;28;20027;-79
2021/07/17 03:39:01;;;;;;;27.48;11.23;;;16.70;92.00;;;;;;5078927;28;20089;-80
2021/07/17 03:41:26;;;;;;;26.88;11.27;;;16.70;91.90;;;;;;5084708;28;20040;-79
2021/07/17 03:43:52;;;;;;;33.75;12.68;;;16.70;91.90;;;;;;5084001;28;20020;-79
2021/07/17 03:46:17;;;;;;;25.65;10.73;;;16.70;91.90;;;;;;5076747;28;20226;-79
2021/07/17 03:48:43;;;;;;;25.88;10.48;;;16.60;92.00;;;;;;5078987;28;20116;-79
2021/07/17 03:51:09;;;;;;;27.45;11.23;;;16.70;92.10;;;;;;5078716;28;20052;-79
2021/07/17 03:53:34;;;;;;;28.77;12.00;;;16.60;92.00;;;;;;5078939;28;20424;-79
2021/07/17 03:56:00;;;;;;;34.13;12.73;;;16.70;92.30;;;;;;5084019;28;20024;-79
2021/07/17 03:58:26;;;;;;;37.05;14.30;;;16.60;92.10;;;;;;5061678;28;20097;-79
2021/07/17 04:00:51;;;;;;;28.27;11.43;;;16.70;92.30;;;;;;5080349;28;20028;-79
2021/07/17 04:03:17;;;;;;;32.40;11.95;;;16.70;92.30;;;;;;5075734;28;20036;-80
2021/07/17 04:05:43;;;;;;;32.63;13.00;;;16.70;92.40;;;;;;5082003;28;20040;-79
2021/07/17 04:08:09;;;;;;;31.33;13.02;;;16.70;92.40;;;;;;5076717;28;20031;-79
2021/07/17 04:10:34;;;;;;;34.15;14.63;;;16.80;92.60;;;;;;5078271;28;20388;-79
2021/07/17 04:13:03;;;;;;;35.00;13.82;;;16.80;92.60;;;;;;5075063;28;20032;-79
2021/07/17 04:15:29;;;;;;;24.90;13.05;;;16.80;92.60;;;;;;5082790;28;20025;-79
2021/07/17 04:17:55;;;;;;;37.70;13.23;;;16.90;92.70;;;;;;5073786;28;20035;-79
2021/07/17 04:20:20;;;;;;;33.28;13.18;;;16.90;92.70;;;;;;5067647;28;20098;-79
2021/07/17 04:22:46;;;;;;;37.63;14.15;;;17.00;92.80;;;;;;5083466;28;20028;-79
2021/07/17 04:25:12;;;;;;;33.25;13.27;;;17.10;92.80;;;;;;5086953;28;20028;-79
2021/07/17 04:27:39;;;;;;;38.50;14.73;;;17.10;92.80;;;;;;5089065;28;20031;-79
2021/07/17 04:30:06;;;;;;;32.55;15.27;;;17.20;92.80;;;;;;5080873;28;20048;-79
2021/07/17 04:32:32;;;;;;;36.38;13.77;;;17.30;92.90;;;;;;5077030;28;20032;-79
2021/07/17 04:34:57;;;;;;;37.55;15.30;;;17.30;92.90;;;;;;5078464;28;20036;-79
2021/07/17 04:37:23;;;;;;;36.95;15.05;;;17.40;92.90;;;;;;5090735;28;20431;-79
2021/07/17 04:39:49;;;;;;;38.22;14.35;;;17.40;92.90;;;;;;5075866;28;20039;-79
2021/07/17 04:42:16;;;;;;;35.15;15.25;;;17.50;93.00;;;;;;5092644;28;20045;-79
2021/07/17 04:44:41;;;;;;;33.17;14.27;;;17.50;93.00;;;;;;5089228;28;20021;-79
2021/07/17 04:47:08;;;;;;;36.92;15.35;;;17.50;92.90;;;;;;5077477;28;20028;-79
2021/07/17 04:49:33;;;;;;;52.05;17.58;;;17.60;92.80;;;;;;5085518;28;20057;-79
2021/07/17 04:51:59;;;;;;;30.92;14.13;;;17.60;92.90;;;;;;5081414;28;20032;-79
2021/07/17 04:54:25;;;;;;;35.30;14.18;;;17.60;92.80;;;;;;5081983;28;20381;-79
2021/07/17 04:56:51;;;;;;;37.45;14.70;;;17.60;92.80;;;;;;5076225;28;20035;-79
2021/07/17 04:59:16;;;;;;;36.10;14.82;;;17.70;92.80;;;;;;5082025;28;20031;-79
2021/07/17 05:01:42;;;;;;;36.50;15.18;;;17.70;92.80;;;;;;5076772;28;20453;-79
2021/07/17 05:04:07;;;;;;;32.00;14.50;;;17.80;92.80;;;;;;5085580;28;20381;-79
2021/07/17 05:06:33;;;;;;;32.05;13.20;;;17.80;92.70;;;;;;5073531;28;20062;-79
2021/07/17 05:08:59;;;;;;;34.95;13.77;;;17.80;92.70;;;;;;5082273;28;20065;-79
2021/07/17 05:11:24;;;;;;;33.28;13.73;;;17.90;92.70;;;;;;5090787;28;20111;-79
2021/07/17 05:13:50;;;;;;;35.20;14.50;;;17.90;92.60;;;;;;5073916;28;20430;-80
2021/07/17 05:16:15;;;;;;;33.88;13.57;;;17.90;92.60;;;;;;5075006;28;20040;-80
2021/07/17 05:18:41;;;;;;;32.03;14.80;;;18.00;92.60;;;;;;5070719;28;20481;-79
2021/07/17 05:21:06;;;;;;;29.65;13.20;;;18.00;92.60;;;;;;5078995;28;20034;-79
2021/07/17 05:23:32;;;;;;;39.17;14.35;;;18.00;92.50;;;;;;5081661;28;20052;-79
2021/07/17 05:25:58;;;;;;;34.28;13.10;;;18.10;92.40;;;;;;5091018;28;20090;-79
2021/07/17 05:28:23;;;;;;;32.03;13.32;;;18.10;92.30;;;;;;5069768;28;20035;-79
2021/07/17 05:30:50;;;;;;;32.65;12.23;;;18.10;92.30;;;;;;5081448;28;20048;-79
2021/07/17 05:33:16;;;;;;;32.17;12.93;;;18.10;92.10;;;;;;5092227;28;20376;-79
2021/07/17 05:35:42;;;;;;;31.52;11.55;;;18.10;91.90;;;;;;5081700;28;20028;-79
2021/07/17 05:38:08;;;;;;;29.95;12.23;;;18.20;92.00;;;;;;5078979;28;20024;-79
2021/07/17 05:40:34;;;;;;;33.00;12.52;;;18.20;91.90;;;;;;5078228;28;20477;-79
2021/07/17 05:43:00;;;;;;;29.17;11.82;;;18.30;91.80;;;;;;5084988;28;20474;-79
2021/07/17 05:45:25;;;;;;;30.15;11.50;;;18.30;91.70;;;;;;5080734;28;20104;-79
2021/07/17 05:47:51;;;;;;;30.52;12.02;;;18.40;91.60;;;;;;5090411;28;20051;-79
2021/07/17 05:50:18;;;;;;;36.03;12.20;;;18.40;91.30;;;;;;5091848;28;20077;-79
2021/07/17 05:52:44;;;;;;;27.67;11.93;;;18.40;91.30;;;;;;5092270;28;20023;-79
2021/07/17 05:55:10;;;;;;;27.95;12.38;;;18.40;91.30;;;;;;5084503;28;20032;-79
2021/07/17 05:57:36;;;;;;;25.17;11.63;;;18.40;91.20;;;;;;5083465;28;20036;-79
2021/07/17 06:00:03;;;;;;;32.47;12.85;;;18.40;91.20;;;;;;5093530;28;20040;-79
2021/07/17 06:02:29;;;;;;;30.70;13.60;;;18.40;91.10;;;;;;5086931;28;20033;-79
2021/07/17 06:04:54;;;;;;;28.60;11.50;;;18.40;90.90;;;;;;5076729;28;20028;-79
2021/07/17 06:07:20;;;;;;;26.33;11.52;;;18.50;91.00;;;;;;5076290;28;20021;-79
2021/07/17 06:09:46;;;;;;;38.33;12.38;;;18.50;91.00;;;;;;5076306;28;20103;-79
2021/07/17 06:12:12;;;;;;;31.73;12.93;;;18.50;91.00;;;;;;5075140;28;20111;-79
2021/07/17 06:14:38;;;;;;;37.40;12.68;;;18.50;90.90;;;;;;5076830;28;20039;-79
2021/07/17 06:17:04;;;;;;;25.13;11.85;;;18.50;90.60;;;;;;5089846;28;20477;-78
2021/07/17 06:19:30;;;;;;;35.92;12.40;;;18.50;90.50;;;;;;5076377;28;20435;-79
2021/07/17 06:21:56;;;;;;;32.75;12.88;;;18.50;90.50;;;;;;5079868;28;20111;-79
2021/07/17 06:24:22;;;;;;;32.17;11.68;;;18.60;90.50;;;;;;5096301;28;20489;-79
2021/07/17 06:26:47;;;;;;;28.08;11.82;;;18.60;90.50;;;;;;5076035;28;20021;-79
2021/07/17 06:29:13;;;;;;;28.15;10.95;;;18.60;90.60;;;;;;5075919;28;20131;-79
2021/07/17 06:31:39;;;;;;;24.33;9.75;;;18.70;90.50;;;;;;5075886;28;20020;-79
2021/07/17 06:34:04;;;;;;;37.47;10.55;;;18.70;90.30;;;;;;5075876;28;20444;-79
2021/07/17 06:36:30;;;;;;;31.70;10.82;;;18.80;90.30;;;;;;5075866;28;20036;-79
2021/07/17 06:38:56;;;;;;;27.08;9.65;;;18.80;90.30;;;;;;5075142;28;20107;-79
2021/07/17 06:41:22;;;;;;;34.17;10.45;;;18.90;90.20;;;;;;5075714;28;20115;-79
2021/07/17 06:43:48;;;;;;;31.48;10.40;;;19.00;89.80;;;;;;5075886;28;20424;-79
2021/07/17 06:46:15;;;;;;;30.20;10.35;;;19.00;89.30;;;;;;5074846;28;20124;-79
2021/07/17 06:48:40;;;;;;;32.53;11.43;;;19.00;89.40;;;;;;5075784;28;20060;-79
2021/07/17 06:51:08;;;;;;;36.08;12.55;;;19.00;89.30;;;;;;5084579;28;20055;-79
2021/07/17 06:53:35;;;;;;;32.58;11.52;;;18.90;89.40;;;;;;5076687;28;20036;-79
2021/07/17 06:56:00;;;;;;;29.95;11.60;;;19.00;89.70;;;;;;5074457;28;20484;-80
2021/07/17 06:58:26;;;;;;;33.80;12.05;;;19.00;89.80;;;;;;5075400;28;20229;-79
2021/07/17 07:00:52;;;;;;;29.25;11.18;;;19.10;89.40;;;;;;5073968;28;20057;-78
2021/07/17 07:03:17;;;;;;;32.95;10.85;;;19.10;89.20;;;;;;5075523;28;20031;-79
2021/07/17 07:05:43;;;;;;;30.92;11.38;;;19.10;88.80;;;;;;5075672;28;20500;-79
2021/07/17 07:08:08;;;;;;;28.85;10.55;;;19.10;89.10;;;;;;5074162;28;20025;-80
2021/07/17 07:10:34;;;;;;;25.58;9.70;;;19.20;89.10;;;;;;5081127;28;20035;-78
2021/07/17 07:13:08;;;;;;;23.02;9.05;;;19.20;88.90;;;;;;5077807;28;20024;-78
2021/07/17 07:15:33;;;;;;;27.63;9.07;;;19.30;89.10;;;;;;5074641;28;20033;-77
2021/07/17 07:17:59;;;;;;;30.40;10.27;;;19.30;88.70;;;;;;5092716;28;20038;-77
2021/07/17 07:20:24;;;;;;;32.40;11.10;;;19.40;88.60;;;;;;5080035;28;20036;-77
2021/07/17 07:22:50;;;;;;;29.27;10.18;;;19.40;88.00;;;;;;5092333;28;20031;-77
2021/07/17 07:25:16;;;;;;;26.52;9.80;;;19.50;87.70;;;;;;5085852;28;20025;-77
2021/07/17 07:27:42;;;;;;;22.75;8.73;;;19.40;87.80;;;;;;5075070;28;20029;-77
2021/07/17 07:30:08;;;;;;;29.48;10.02;;;19.50;88.20;;;;;;5076169;28;20063;-77
2021/07/17 07:32:33;;;;;;;29.80;9.52;;;19.70;87.90;;;;;;5080832;28;20041;-77
2021/07/17 07:34:59;;;;;;;29.42;9.63;;;20.00;86.90;;;;;;5075277;28;20024;-77
2021/07/17 07:37:26;;;;;;;30.75;8.85;;;20.10;85.70;;;;;;5076788;28;20073;-77
2021/07/17 07:39:54;;;;;;;28.02;9.13;;;20.20;85.50;;;;;;5073560;28;20029;-77
2021/07/17 07:42:20;;;;;;;26.25;8.75;;;20.30;85.30;;;;;;5092325;28;20039;-77
2021/07/17 07:44:45;;;;;;;27.60;8.65;;;20.30;85.20;;;;;;5093685;28;20032;-77
2021/07/17 07:47:11;;;;;;;24.55;7.30;;;20.20;84.60;;;;;;5094528;28;20050;-77
2021/07/17 07:49:37;;;;;;;24.73;8.02;;;20.40;84.30;;;;;;5088994;28;20017;-77
2021/07/17 07:52:02;;;;;;;26.70;7.28;;;20.50;83.50;;;;;;5072806;28;20056;-77
2021/07/17 07:54:28;;;;;;;16.27;6.47;;;20.40;83.40;;;;;;5085644;28;20085;-77
2021/07/17 07:56:54;;;;;;;23.40;6.15;;;20.40;84.00;;;;;;5093637;28;20032;-77
2021/07/17 07:59:19;;;;;;;18.60;7.45;;;20.40;83.20;;;;;;5093042;28;20040;-77
2021/07/17 08:01:45;;;;;;;21.23;7.07;;;20.40;83.60;;;;;;5079302;28;20029;-77
2021/07/17 08:04:11;;;;;;;21.27;7.03;;;20.60;83.80;;;;;;5073376;28;20084;-77
2021/07/17 08:06:37;;;;;;;17.50;6.57;;;20.90;82.10;;;;;;5073855;28;20485;-77
2021/07/17 08:09:03;;;;;;;24.15;7.43;;;21.20;81.80;;;;;;5075675;28;20039;-77
2021/07/17 08:11:29;;;;;;;23.60;5.70;;;21.30;80.80;;;;;;5074056;28;20028;-77
2021/07/17 08:13:54;;;;;;;18.67;6.30;;;21.40;81.20;;;;;;5073384;28;20603;-77
2021/07/17 08:16:20;;;;;;;24.02;6.22;;;21.40;80.90;;;;;;5072335;28;20047;-77
2021/07/17 08:18:45;;;;;;;18.33;6.03;;;21.40;80.90;;;;;;5055881;28;20032;-77
2021/07/17 08:21:12;;;;;;;14.95;5.80;;;21.20;80.80;;;;;;5072207;28;20405;-77
2021/07/17 08:23:37;;;;;;;16.77;5.25;;;21.10;81.50;;;;;;5078752;28;20071;-77
2021/07/17 08:26:03;;;;;;;16.00;5.22;;;21.10;81.70;;;;;;5089066;28;20493;-77
2021/07/17 08:28:29;;;;;;;19.73;5.55;;;21.20;80.60;;;;;;5074264;28;20067;-79
2021/07/17 08:30:54;;;;;;;19.67;5.65;;;21.30;79.90;;;;;;5072571;28;20139;-78
2021/07/17 08:33:20;;;;;;;22.15;5.55;;;21.50;79.20;;;;;;5073514;28;20071;-78
2021/07/17 08:35:46;;;;;;;17.02;4.97;;;21.70;79.10;;;;;;5073310;28;20032;-78
2021/07/17 08:38:12;;;;;;;16.20;4.95;;;21.90;77.90;;;;;;5072803;28;20027;-79
2021/07/17 08:40:37;;;;;;;19.70;4.57;;;22.00;77.60;;;;;;5055923;28;20028;-78
2021/07/17 08:43:03;;;;;;;12.82;4.22;;;22.20;76.90;;;;;;5089060;28;20120;-78
2021/07/17 08:45:29;;;;;;;14.27;5.38;;;22.30;77.00;;;;;;5092809;28;20027;-78
2021/07/17 08:47:56;;;;;;;15.98;5.47;;;22.50;76.40;;;;;;5088378;28;20439;-78
2021/07/17 08:50:25;;;;;;;13.02;5.03;;;22.70;76.30;;;;;;5072428;28;20090;-78
2021/07/17 08:52:52;;;;;;;13.55;4.82;;;22.90;75.90;;;;;;5072232;28;20028;-78
2021/07/17 08:55:19;;;;;;;16.42;5.38;;;23.00;74.70;;;;;;5055879;28;20032;-78
2021/07/17 08:57:44;;;;;;;19.45;5.57;;;23.10;73.60;;;;;;5072158;28;20093;-79
2021/07/17 09:00:23;;;;;;;19.35;5.45;;;23.00;73.00;;;;;;5072832;28;20020;-79
2021/07/17 09:02:54;;;;;;;15.00;5.03;;;23.00;74.00;;;;;;5073466;28;20028;-79
2021/07/17 09:05:21;;;;;;;15.82;4.43;;;23.00;74.70;;;;;;5072194;28;20032;-79
2021/07/17 09:07:48;;;;;;;15.23;4.63;;;23.00;74.90;;;;;;5073376;28;20031;-79
2021/07/17 09:10:28;;;;;;;11.70;4.13;;;23.20;73.00;;;;;;5071888;28;20509;-79
2021/07/17 09:13:22;;;;;;;10.35;3.72;;;23.20;72.80;;;;;;5072169;28;20564;-79
2021/07/17 09:15:48;;;;;;;13.02;4.25;;;23.40;72.70;;;;;;5071845;28;20062;-78
2021/07/17 09:18:21;;;;;;;18.65;4.53;;;23.40;71.50;;;;;;5073062;28;20020;-78
2021/07/17 09:21:04;;;;;;;13.07;4.22;;;23.50;71.30;;;;;;5073233;28;20037;-78
2021/07/17 09:23:35;;;;;;;16.30;4.22;;;23.60;70.30;;;;;;5073087;28;20025;-78
2021/07/17 09:26:28;;;;;;;12.80;3.70;;;23.50;69.70;;;;;;5071961;28;20028;-78
2021/07/17 09:29:05;;;;;;;13.93;4.00;;;23.60;71.00;;;;;;5073293;28;20017;-78
2021/07/17 09:31:33;;;;;;;13.70;4.15;;;23.70;71.10;;;;;;5073231;28;20533;-79
2021/07/17 09:34:13;;;;;;;16.00;4.30;;;23.70;69.00;;;;;;5071888;28;20028;-79
2021/07/17 09:37:11;;;;;;;12.45;3.50;;;23.70;70.00;;;;;;5077117;28;20271;-79
2021/07/17 09:39:44;;;;;;;12.82;4.32;;;23.80;70.50;;;;;;5084806;28;20064;-79
2021/07/17 09:42:14;;;;;;;11.05;3.72;;;24.00;70.30;;;;;;5075902;28;20059;-79
2021/07/17 09:44:40;;;;;;;13.15;3.90;;;24.10;70.90;;;;;;5076656;28;20108;-79
2021/07/17 09:47:16;;;;;;;13.57;4.05;;;24.20;70.50;;;;;;5075234;28;20056;-79
2021/07/17 09:49:42;;;;;;;16.90;5.00;;;24.30;69.20;;;;;;5076703;28;20103;-80
2021/07/17 09:52:09;;;;;;;10.57;3.80;;;24.30;68.10;;;;;;5093400;28;20127;-80
2021/07/17 09:54:35;;;;;;;9.82;3.45;;;24.30;69.50;;;;;;5095647;28;20028;-80
2021/07/17 09:57:02;;;;;;;12.45;4.15;;;24.40;70.00;;;;;;5076184;28;20074;-80
2021/07/17 09:59:28;;;;;;;9.82;3.72;;;24.60;68.50;;;;;;5075524;28;20497;-79
2021/07/17 10:01:54;;;;;;;12.20;3.67;;;24.60;67.40;;;;;;5077381;28;20047;-80
2021/07/17 10:04:20;;;;;;;14.32;3.97;;;24.60;67.20;;;;;;5076647;28;20021;-80
2021/07/17 10:06:57;;;;;;;9.98;3.67;;;24.60;67.60;;;;;;5093036;28;20027;-80
2021/07/17 10:09:26;;;;;;;10.23;3.67;;;24.70;68.30;;;;;;5095630;28;20107;-81
2021/07/17 10:12:00;;;;;;;11.07;3.92;;;24.80;68.10;;;;;;5105438;28;20032;-80
2021/07/17 10:14:33;;;;;;;11.05;3.42;;;24.80;68.00;;;;;;5076172;28;20025;-80
2021/07/17 10:17:13;;;;;;;12.88;3.80;;;24.90;67.70;;;;;;5075889;28;20029;-80
2021/07/17 10:19:40;;;;;;;13.77;3.90;;;25.00;67.60;;;;;;5076105;28;20025;-80
2021/07/17 10:22:07;;;;;;;9.13;3.25;;;25.00;66.20;;;;;;5075977;28;20032;-80
2021/07/17 10:24:33;;;;;;;12.18;3.85;;;25.00;67.50;;;;;;5074816;28;20435;-80
2021/07/17 10:27:00;;;;;;;14.43;4.57;;;25.10;68.70;;;;;;5076200;28;20021;-79
2021/07/17 10:29:26;;;;;;;11.43;3.75;;;25.20;67.90;;;;;;5095916;28;20097;-79
2021/07/17 10:31:53;;;;;;;10.55;3.80;;;25.40;66.90;;;;;;5078310;28;20028;-79
2021/07/17 10:34:20;;;;;;;11.48;3.70;;;25.50;67.10;;;;;;5075661;28;20103;-79
2021/07/17 10:37:05;;;;;;;12.40;3.55;;;25.50;68.10;;;;;;5076390;28;20036;-79
2021/07/17 10:39:38;;;;;;;7.70;3.40;;;25.50;66.20;;;;;;5074755;28;20154;-78
2021/07/17 10:42:12;;;;;;;10.63;3.30;;;25.50;64.70;;;;;;5094371;28;20079;-78
2021/07/17 10:44:44;;;;;;;12.90;3.50;;;25.50;65.70;;;;;;5095527;28;20028;-79
2021/07/17 10:47:10;;;;;;;10.20;3.20;;;25.60;66.40;;;;;;5076966;28;20481;-79
2021/07/17 10:49:42;;;;;;;11.68;3.22;;;25.70;66.40;;;;;;5094988;28;20077;-79
2021/07/17 10:52:08;;;;;;;12.40;3.05;;;25.80;64.00;;;;;;5094495;28;20711;-79
2021/07/17 10:54:36;;;;;;;9.55;3.17;;;25.80;65.10;;;;;;5075909;28;20389;-80
2021/07/17 10:57:02;;;;;;;8.15;2.75;;;25.80;65.80;;;;;;5081997;28;20036;-80
2021/07/17 10:59:28;;;;;;;10.35;3.58;;;26.00;65.80;;;;;;5095020;28;20020;-80
2021/07/17 11:01:56;;;;;;;9.13;3.15;;;26.10;66.30;;;;;;5075414;28;20034;-80
2021/07/17 11:04:54;;;;;;;5.35;2.72;;;26.10;65.70;;;;;;5075580;28;20024;-80
2021/07/17 11:07:20;;;;;;;8.95;2.88;;;26.20;65.90;;;;;;5055820;28;20075;-80
2021/07/17 11:09:52;;;;;;;8.73;2.70;;;26.30;65.20;;;;;;5055467;28;20480;-80
2021/07/17 11:12:27;;;;;;;10.38;2.90;;;26.30;65.20;;;;;;5072602;28;20020;-80
2021/07/17 11:14:53;;;;;;;8.77;2.30;;;26.40;63.50;;;;;;5081715;28;20029;-80
2021/07/17 11:17:48;;;;;;;7.90;2.58;;;26.30;61.00;;;;;;5074245;28;20033;-80
2021/07/17 11:20:38;;;;;;;6.57;2.20;;;26.20;62.60;;;;;;5075121;28;20047;-79
2021/07/17 11:23:13;;;;;;;7.97;2.60;;;26.10;62.50;;;;;;5075157;28;20073;-79
2021/07/17 11:25:55;;;;;;;9.90;2.50;;;26.20;63.90;;;;;;5075204;28;20013;-79
2021/07/17 11:28:51;;;;;;;9.85;2.60;;;26.30;62.50;;;;;;5075106;28;20614;-79
2021/07/17 11:31:33;;;;;;;8.63;2.58;;;26.40;62.50;;;;;;5093137;28;20036;-80
2021/07/17 11:34:14;;;;;;;11.75;2.78;;;26.50;61.70;;;;;;5073918;28;20032;-79
2021/07/17 11:36:51;;;;;;;6.53;2.83;;;26.50;61.30;;;;;;5075169;28;20028;-78
2021/07/17 11:39:19;;;;;;;7.47;2.53;;;26.50;60.60;;;;;;5074545;28;20021;-79
2021/07/17 11:41:45;;;;;;;10.48;4.80;;;26.40;61.90;;;;;;5073494;28;20054;-79
2021/07/17 11:44:11;;;;;;;8.48;2.83;;;26.50;62.10;;;;;;5074805;28;20021;-79
2021/07/17 11:46:51;;;;;;;7.53;2.50;;;26.60;62.10;;;;;;5074505;28;20029;-79
2021/07/17 11:49:16;;;;;;;8.00;2.05;;;26.80;62.30;;;;;;5074626;28;20107;-79
2021/07/17 11:51:54;;;;;;;13.65;2.35;;;26.90;62.50;;;;;;5076585;28;20449;-79
2021/07/17 11:54:28;;;;;;;7.18;2.10;;;27.00;61.80;;;;;;5094902;28;20078;-79
2021/07/17 11:57:16;;;;;;;5.70;2.08;;;27.00;61.80;;;;;;5094362;28;20041;-79
2021/07/17 11:59:54;;;;;;;;;;;27.00;60.00;;;;;;5095203;28;20435;-78
2021/07/17 12:02:22;;;;;;;5.75;2.10;;;27.00;61.30;;;;;;5089696;28;19912;-79
2021/07/17 12:04:49;;;;;;;7.68;2.38;;;27.10;59.80;;;;;;5074409;28;20429;-79
2021/07/17 12:07:28;;;;;;;5.90;2.10;;;27.10;60.00;;;;;;5078213;28;20416;-79
2021/07/17 12:09:56;;;;;;;6.10;1.80;;;27.00;59.10;;;;;;5076741;28;20032;-79
2021/07/17 12:12:29;;;;;;;6.65;1.67;;;26.90;59.00;;;;;;5094469;28;20081;-79
2021/07/17 12:15:02;;;;;;;6.60;1.65;;;27.00;59.30;;;;;;5094580;28;20020;-79
2021/07/17 12:17:28;;;;;;;8.18;1.98;;;27.00;58.80;;;;;;5094616;28;20107;-79
2021/07/17 12:20:27;;;;;;;8.20;1.85;;;27.10;58.90;;;;;;5078973;28;20078;-79
2021/07/17 12:23:00;;;;;;;7.45;1.85;;;27.10;57.30;;;;;;5074422;28;20209;-79
2021/07/17 12:25:29;;;;;;;6.20;1.90;;;27.10;58.00;;;;;;5074184;28;20027;-79
2021/07/17 12:27:59;;;;;;;6.13;1.83;;;27.20;57.90;;;;;;5074068;28;20016;-79
2021/07/17 12:30:27;;;;;;;5.50;1.90;;;27.20;57.40;;;;;;5073820;28;20087;-78
2021/07/17 12:33:22;;;;;;;7.25;1.75;;;27.20;58.60;;;;;;5072375;28;20121;-78
2021/07/17 12:36:09;;;;;;;7.07;1.80;;;27.40;57.90;;;;;;5054295;28;20063;-78
2021/07/17 12:38:41;;;;;;;7.88;1.60;;;27.40;57.40;;;;;;5053970;28;20033;-78